createdAt,value
2016-12-18T00:00:32.022Z,1051.29
2016-12-18T00:01:32.010Z,1051.28
2016-12-18T00:02:31.997Z,1051.28
2016-12-18T00:03:31.985Z,1051.33
2016-12-18T00:04:31.972Z,1051.37
2016-12-18T00:05:31.959Z,1051.33
2016-12-18T00:06:31.946Z,1051.28
2016-12-18T00:07:31.933Z,1051.22
2016-12-18T00:08:31.921Z,1051.18
2016-12-18T00:09:31.908Z,1051.19
2016-12-18T00:10:31.896Z,1051.18
2016-12-18T00:11:31.882Z,1051.21
2016-12-18T00:12:31.869Z,1051.2
2016-12-18T00:13:31.858Z,1051.26
2016-12-18T00:14:31.843Z,1051.23
2016-12-18T00:15:31.831Z,1051.23
2016-12-18T00:16:31.818Z,1051.19
2016-12-18T00:17:31.805Z,1051.2
2016-12-18T00:18:31.792Z,1051.22
2016-12-18T00:19:31.779Z,1051.25
2016-12-18T00:20:31.767Z,1051.2
2016-12-18T00:21:31.755Z,1051.1
2016-12-18T00:22:31.742Z,1051.1
2016-12-18T00:23:31.730Z,1051.13
2016-12-18T00:24:31.718Z,1051.11
2016-12-18T00:25:31.703Z,1051.09
2016-12-18T00:26:31.691Z,1051.1
2016-12-18T00:27:31.678Z,1051.18
2016-12-18T00:28:31.666Z,1051.11
2016-12-18T00:29:31.652Z,1051.09
2016-12-18T00:30:31.640Z,1051.06
2016-12-18T00:31:31.628Z,1051.07
2016-12-18T00:32:31.615Z,1051.13
2016-12-18T00:33:31.601Z,1051.13
2016-12-18T00:34:31.589Z,1051.14
2016-12-18T00:35:31.576Z,1051.16
2016-12-18T00:36:31.563Z,1051.22
2016-12-18T00:37:31.550Z,1051.15
2016-12-18T00:38:31.538Z,1051.13
2016-12-18T00:39:31.527Z,1051.14
2016-12-18T00:40:31.512Z,1051.12
2016-12-18T00:41:31.499Z,1051.14
2016-12-18T00:42:31.486Z,1051.11
2016-12-18T00:43:31.474Z,1051.17
2016-12-18T00:44:31.461Z,1051.36
2016-12-18T00:45:31.448Z,1051.31
2016-12-18T00:46:31.436Z,1051.26
2016-12-18T00:47:31.422Z,1051.28
2016-12-18T00:48:31.410Z,1051.32
2016-12-18T00:49:31.397Z,1051.23
2016-12-18T00:50:31.385Z,1051.18
2016-12-18T00:51:31.371Z,1051.1
2016-12-18T00:52:31.359Z,1051.17
2016-12-18T00:53:31.346Z,1051.16
2016-12-18T00:54:31.333Z,1051.04
2016-12-18T00:55:31.320Z,1051.02
2016-12-18T00:56:31.308Z,1051.07
2016-12-18T00:57:31.296Z,1051.04
2016-12-18T00:58:31.284Z,1051.02
2016-12-18T00:59:31.269Z,1051.05
2016-12-18T01:00:31.257Z,1051
2016-12-18T01:01:31.245Z,1050.99
2016-12-18T01:02:31.231Z,1050.97
2016-12-18T01:03:31.219Z,1050.93
2016-12-18T01:04:31.206Z,1050.88
2016-12-18T01:05:31.193Z,1050.93
2016-12-18T01:06:31.180Z,1050.98
2016-12-18T01:07:31.169Z,1051.03
2016-12-18T01:08:31.156Z,1050.93
2016-12-18T01:09:31.142Z,1050.94
2016-12-18T01:10:31.130Z,1050.92
2016-12-18T01:11:31.118Z,1050.85
2016-12-18T01:12:31.106Z,1050.89
2016-12-18T01:13:31.092Z,1050.9
2016-12-18T01:14:31.080Z,1050.95
2016-12-18T01:15:31.068Z,1050.83
2016-12-18T01:16:31.054Z,1050.86
2016-12-18T01:17:31.041Z,1050.88
2016-12-18T01:18:31.029Z,1050.74
2016-12-18T01:19:31.017Z,1050.8
2016-12-18T01:20:31.003Z,1050.8
2016-12-18T01:21:30.991Z,1050.83
2016-12-18T01:22:30.979Z,1050.82
2016-12-18T01:23:30.966Z,1050.83
2016-12-18T01:24:30.953Z,1050.85
2016-12-18T01:25:30.940Z,1050.85
2016-12-18T01:26:30.928Z,1050.85
2016-12-18T01:27:30.915Z,1050.84
2016-12-18T01:28:30.903Z,1050.87
2016-12-18T01:29:30.890Z,1050.89
2016-12-18T01:30:30.878Z,1050.82
2016-12-18T01:31:30.865Z,1050.84
2016-12-18T01:32:30.852Z,1050.79
2016-12-18T01:33:30.841Z,1050.74
2016-12-18T01:34:30.827Z,1050.68
2016-12-18T01:35:30.814Z,1050.64
2016-12-18T01:36:30.802Z,1050.57
2016-12-18T01:37:30.789Z,1050.52
2016-12-18T01:38:30.776Z,1050.55
2016-12-18T01:39:30.763Z,1050.51
2016-12-18T01:40:30.751Z,1050.46
2016-12-18T01:41:30.739Z,1050.48
2016-12-18T01:42:30.726Z,1050.44
2016-12-18T01:43:30.713Z,1050.33
2016-12-18T01:44:30.701Z,1050.33
2016-12-18T01:45:30.689Z,1050.3
2016-12-18T01:46:30.675Z,1050.27
2016-12-18T01:47:30.663Z,1050.27
2016-12-18T01:48:30.651Z,1050.25
2016-12-18T01:49:30.638Z,1050.18
2016-12-18T01:50:30.625Z,1050.11
2016-12-18T01:51:30.613Z,1050.05
2016-12-18T01:52:30.601Z,1049.98
2016-12-18T01:53:30.588Z,1050.04
2016-12-18T01:54:30.576Z,1050.04
2016-12-18T01:55:30.563Z,1050.02
2016-12-18T01:56:30.552Z,1050.06
2016-12-18T01:57:30.540Z,1050.04
2016-12-18T01:58:30.526Z,1050.07
2016-12-18T01:59:30.514Z,1050.03
2016-12-18T02:00:30.501Z,1049.98
2016-12-18T02:01:30.489Z,1049.95
2016-12-18T02:02:30.477Z,1049.86
2016-12-18T02:03:30.464Z,1049.84
2016-12-18T02:04:30.451Z,1049.82
2016-12-18T02:05:30.439Z,1049.79
2016-12-18T02:06:30.427Z,1049.74
2016-12-18T02:07:30.414Z,1049.86
2016-12-18T02:08:30.402Z,1049.91
2016-12-18T02:09:30.389Z,1049.93
2016-12-18T02:10:30.377Z,1049.92
2016-12-18T02:11:30.364Z,1049.89
2016-12-18T02:12:30.352Z,1049.91
2016-12-18T02:13:30.340Z,1049.98
2016-12-18T02:14:30.327Z,1049.97
2016-12-18T02:15:30.314Z,1049.99
2016-12-18T02:16:30.302Z,1049.98
2016-12-18T02:17:30.290Z,1050
2016-12-18T02:18:30.276Z,1049.91
2016-12-18T02:19:30.264Z,1049.93
2016-12-18T02:20:30.252Z,1049.9
2016-12-18T02:21:30.240Z,1049.89
2016-12-18T02:22:30.226Z,1049.88
2016-12-18T02:23:30.214Z,1049.98
2016-12-18T02:24:30.204Z,1049.91
2016-12-18T02:25:30.189Z,1049.89
2016-12-18T02:26:30.176Z,1049.9
2016-12-18T02:27:30.164Z,1049.83
2016-12-18T02:28:30.153Z,1049.82
2016-12-18T02:29:30.142Z,1049.78
2016-12-18T02:30:30.128Z,1049.74
2016-12-18T02:31:30.119Z,1049.73
2016-12-18T02:32:30.103Z,1049.67
2016-12-18T02:33:30.090Z,1049.64
2016-12-18T02:34:30.077Z,1049.58
2016-12-18T02:35:30.067Z,1049.56
2016-12-18T02:36:30.053Z,1049.59
2016-12-18T02:37:30.041Z,1049.54
2016-12-18T02:38:30.028Z,1049.54
2016-12-18T02:39:30.016Z,1049.54
2016-12-18T02:40:30.003Z,1049.56
2016-12-18T02:41:29.993Z,1049.55
2016-12-18T02:42:29.980Z,1049.51
2016-12-18T02:43:29.969Z,1049.5
2016-12-18T02:44:29.955Z,1049.49
2016-12-18T02:45:29.943Z,1049.48
2016-12-18T02:46:29.931Z,1049.52
2016-12-18T02:47:29.919Z,1049.56
2016-12-18T02:48:29.906Z,1049.58
2016-12-18T02:49:29.895Z,1049.61
2016-12-18T02:50:29.883Z,1049.58
2016-12-18T02:51:29.869Z,1049.61
2016-12-18T02:52:29.858Z,1049.7
2016-12-18T02:53:29.845Z,1049.68
2016-12-18T02:54:29.835Z,1049.68
2016-12-18T02:55:29.820Z,1049.61
2016-12-18T02:56:29.808Z,1049.62
2016-12-18T02:57:29.798Z,1049.6
2016-12-18T02:58:29.784Z,1049.58
2016-12-18T02:59:29.772Z,1049.59
2016-12-18T03:00:29.760Z,1049.6
2016-12-18T03:01:29.748Z,1049.61
2016-12-18T03:02:29.735Z,1049.57
2016-12-18T03:03:29.723Z,1049.56
2016-12-18T03:04:29.711Z,1049.55
2016-12-18T03:05:29.699Z,1049.53
2016-12-18T03:06:29.686Z,1049.5
2016-12-18T03:07:29.674Z,1049.48
2016-12-18T03:08:29.662Z,1049.46
2016-12-18T03:09:29.650Z,1049.38
2016-12-18T03:10:29.637Z,1049.38
2016-12-18T03:11:29.626Z,1049.31
2016-12-18T03:12:29.613Z,1049.28
2016-12-18T03:13:29.601Z,1049.26
2016-12-18T03:14:29.588Z,1049.28
2016-12-18T03:15:29.577Z,1049.27
2016-12-18T03:16:29.565Z,1049.27
2016-12-18T03:17:29.552Z,1049.29
2016-12-18T03:18:29.540Z,1049.32
2016-12-18T03:19:29.528Z,1049.22
2016-12-18T03:20:29.516Z,1049.23
2016-12-18T03:21:29.503Z,1049.25
2016-12-18T03:22:29.491Z,1049.28
2016-12-18T03:23:29.479Z,1049.24
2016-12-18T03:24:29.466Z,1049.23
2016-12-18T03:25:29.454Z,1049.21
2016-12-18T03:26:29.443Z,1049.21
2016-12-18T03:27:29.431Z,1049.24
2016-12-18T03:28:29.418Z,1049.18
2016-12-18T03:29:29.406Z,1049.17
2016-12-18T03:30:29.395Z,1049.22
2016-12-18T03:31:29.382Z,1049.2
2016-12-18T03:32:29.370Z,1049.15
2016-12-18T03:33:29.359Z,1049.11
2016-12-18T03:34:29.347Z,1049.13
2016-12-18T03:35:29.334Z,1049.08
2016-12-18T03:36:29.322Z,1049.1
2016-12-18T03:37:29.310Z,1049.12
2016-12-18T03:38:29.300Z,1049.07
2016-12-18T03:39:29.285Z,1049.08
2016-12-18T03:40:29.273Z,1049.06
2016-12-18T03:41:29.262Z,1049.09
2016-12-18T03:42:29.249Z,1049.06
2016-12-18T03:43:29.237Z,1049.08
2016-12-18T03:44:29.225Z,1049.17
2016-12-18T03:45:29.213Z,1049.21
2016-12-18T03:46:29.200Z,1049.24
2016-12-18T03:47:29.189Z,1049.25
2016-12-18T03:48:29.177Z,1049.26
2016-12-18T03:49:29.165Z,1049.24
2016-12-18T03:50:29.152Z,1049.22
2016-12-18T03:51:29.140Z,1049.24
2016-12-18T03:52:29.128Z,1049.23
2016-12-18T03:53:29.116Z,1049.26
2016-12-18T03:54:29.104Z,1049.28
2016-12-18T03:55:29.092Z,1049.3
2016-12-18T03:56:29.080Z,1049.34
2016-12-18T03:57:29.067Z,1049.31
2016-12-18T03:58:29.055Z,1049.33
2016-12-18T03:59:29.043Z,1049.26
2016-12-18T04:00:29.032Z,1049.29
2016-12-18T04:01:29.019Z,1049.3
2016-12-18T04:02:29.007Z,1049.28
2016-12-18T04:03:28.995Z,1049.31
2016-12-18T04:04:28.983Z,1049.24
2016-12-18T04:05:28.971Z,1049.22
2016-12-18T04:06:28.959Z,1049.23
2016-12-18T04:07:28.948Z,1049.21
2016-12-18T04:08:28.934Z,1049.2
2016-12-18T04:09:28.923Z,1049.18
2016-12-18T04:10:28.911Z,1049.15
2016-12-18T04:11:28.899Z,1049.2
2016-12-18T04:12:28.886Z,1049.2
2016-12-18T04:13:28.874Z,1049.2
2016-12-18T04:14:28.862Z,1049.21
2016-12-18T04:15:28.849Z,1049.19
2016-12-18T04:16:28.837Z,1049.19
2016-12-18T04:17:28.826Z,1049.21
2016-12-18T04:18:28.814Z,1049.14
2016-12-18T04:19:28.801Z,1049.12
2016-12-18T04:20:28.789Z,1049.1
2016-12-18T04:21:28.777Z,1049.11
2016-12-18T04:22:28.766Z,1049.21
2016-12-18T04:23:28.753Z,1049.19
2016-12-18T04:24:28.741Z,1049.18
2016-12-18T04:25:28.729Z,1049.1
2016-12-18T04:26:28.716Z,1049.15
2016-12-18T04:27:28.705Z,1049.15
2016-12-18T04:28:28.693Z,1049.09
2016-12-18T04:29:28.681Z,1049.11
2016-12-18T04:30:28.668Z,1049.08
2016-12-18T04:31:28.657Z,1049.05
2016-12-18T04:32:28.644Z,1049.1
2016-12-18T04:33:28.633Z,1049.12
2016-12-18T04:34:28.620Z,1049.14
2016-12-18T04:35:28.609Z,1049.16
2016-12-18T04:36:28.597Z,1049.16
2016-12-18T04:37:28.584Z,1049.19
2016-12-18T04:38:28.572Z,1049.19
2016-12-18T04:39:28.560Z,1049.2
2016-12-18T04:40:28.549Z,1049.21
2016-12-18T04:41:28.536Z,1049.14
2016-12-18T04:42:28.524Z,1049.16
2016-12-18T04:43:28.512Z,1049.15
2016-12-18T04:44:28.501Z,1049.23
2016-12-18T04:45:28.487Z,1049.19
2016-12-18T04:46:28.476Z,1049.17
2016-12-18T04:47:28.464Z,1049.11
2016-12-18T04:48:28.451Z,1049.13
2016-12-18T04:49:28.439Z,1049.09
2016-12-18T04:50:28.428Z,1049.05
2016-12-18T04:51:28.417Z,1049.02
2016-12-18T04:52:28.403Z,1048.97
2016-12-18T04:53:28.391Z,1049
2016-12-18T04:54:28.379Z,1049
2016-12-18T04:55:28.368Z,1049
2016-12-18T04:56:28.355Z,1048.99
2016-12-18T04:57:28.343Z,1049.01
2016-12-18T04:58:28.331Z,1049
2016-12-18T04:59:28.318Z,1048.97
2016-12-18T05:00:28.306Z,1048.92
2016-12-18T05:01:28.295Z,1048.98
2016-12-18T05:02:28.283Z,1048.92
2016-12-18T05:03:28.270Z,1048.88
2016-12-18T05:04:28.259Z,1048.87
2016-12-18T05:05:28.247Z,1048.9
2016-12-18T05:06:28.235Z,1048.96
2016-12-18T05:07:28.223Z,1048.96
2016-12-18T05:08:28.211Z,1048.96
2016-12-18T05:09:28.199Z,1048.96
2016-12-18T05:10:28.187Z,1048.96
2016-12-18T05:11:28.175Z,1048.92
2016-12-18T05:12:28.163Z,1048.94
2016-12-18T05:13:28.151Z,1048.89
2016-12-18T05:14:28.139Z,1048.88
2016-12-18T05:15:28.127Z,1048.82
2016-12-18T05:16:28.115Z,1048.82
2016-12-18T05:17:28.102Z,1048.84
2016-12-18T05:18:28.091Z,1048.83
2016-12-18T05:19:28.079Z,1048.83
2016-12-18T05:20:28.067Z,1048.87
2016-12-18T05:21:28.054Z,1048.84
2016-12-18T05:22:28.043Z,1048.86
2016-12-18T05:23:28.031Z,1048.82
2016-12-18T05:24:28.019Z,1048.87
2016-12-18T05:25:28.006Z,1048.87
2016-12-18T05:26:27.994Z,1048.83
2016-12-18T05:27:27.985Z,1048.77
2016-12-18T05:28:27.970Z,1048.77
2016-12-18T05:29:27.960Z,1048.79
2016-12-18T05:30:27.947Z,1048.76
2016-12-18T05:31:27.935Z,1048.76
2016-12-18T05:32:27.922Z,1048.76
2016-12-18T05:33:27.911Z,1048.68
2016-12-18T05:34:27.900Z,1048.72
2016-12-18T05:35:27.887Z,1048.69
2016-12-18T05:36:27.874Z,1048.69
2016-12-18T05:37:27.863Z,1048.66
2016-12-18T05:38:27.851Z,1048.65
2016-12-18T05:39:27.839Z,1048.66
2016-12-18T05:40:27.827Z,1048.61
2016-12-18T05:41:27.815Z,1048.56
2016-12-18T05:42:27.804Z,1048.44
2016-12-18T05:43:27.791Z,1048.29
2016-12-18T05:44:27.779Z,1048.29
2016-12-18T05:45:27.768Z,1048.42
2016-12-18T05:46:27.757Z,1048.45
2016-12-18T05:47:27.743Z,1048.4
2016-12-18T05:48:27.732Z,1048.24
2016-12-18T05:49:27.720Z,1048.24
2016-12-18T05:50:27.707Z,1048.22
2016-12-18T05:51:27.696Z,1048.25
2016-12-18T05:52:27.684Z,1048.19
2016-12-18T05:53:27.672Z,1048.07
2016-12-18T05:54:27.660Z,1048.14
2016-12-18T05:55:27.648Z,1048.13
2016-12-18T05:56:27.636Z,1048.2
2016-12-18T05:57:27.624Z,1048.29
2016-12-18T05:58:27.612Z,1048.34
2016-12-18T05:59:27.600Z,1048.33
2016-12-18T06:00:27.588Z,1048.27
2016-12-18T06:01:27.575Z,1048.24
2016-12-18T06:02:27.564Z,1048.22
2016-12-18T06:03:27.552Z,1048.25
2016-12-18T06:04:27.541Z,1048.25
2016-12-18T06:05:27.528Z,1048.21
2016-12-18T06:06:27.517Z,1048.15
2016-12-18T06:07:27.505Z,1048.16
2016-12-18T06:08:27.493Z,1048.13
2016-12-18T06:09:27.482Z,1048.17
2016-12-18T06:10:27.469Z,1048.13
2016-12-18T06:11:27.457Z,1048.13
2016-12-18T06:12:27.445Z,1048.11
2016-12-18T06:13:27.433Z,1048.09
2016-12-18T06:14:27.422Z,1048.08
2016-12-18T06:15:27.411Z,1048.05
2016-12-18T06:16:27.397Z,1048.01
2016-12-18T06:17:27.386Z,1047.98
2016-12-18T06:18:27.375Z,1047.93
2016-12-18T06:19:27.363Z,1047.93
2016-12-18T06:20:27.351Z,1047.89
2016-12-18T06:21:27.339Z,1047.85
2016-12-18T06:22:27.328Z,1047.87
2016-12-18T06:23:27.315Z,1047.9
2016-12-18T06:24:27.304Z,1047.9
2016-12-18T06:25:27.292Z,1047.92
2016-12-18T06:26:27.280Z,1047.99
2016-12-18T06:27:27.268Z,1048
2016-12-18T06:28:27.257Z,1047.96
2016-12-18T06:29:27.248Z,1048.03
2016-12-18T06:30:27.234Z,1047.96
2016-12-18T06:31:27.221Z,1047.91
2016-12-18T06:32:27.210Z,1047.92
2016-12-18T06:33:27.198Z,1047.96
2016-12-18T06:34:27.186Z,1047.95
2016-12-18T06:35:27.175Z,1047.87
2016-12-18T06:36:27.163Z,1047.95
2016-12-18T06:37:27.152Z,1047.95
2016-12-18T06:38:27.164Z,1047.92
2016-12-18T06:39:27.128Z,1047.89
2016-12-18T06:40:27.116Z,1047.9
2016-12-18T06:41:27.105Z,1047.82
2016-12-18T06:42:27.094Z,1047.84
2016-12-18T06:43:27.082Z,1047.82
2016-12-18T06:44:27.071Z,1047.81
2016-12-18T06:45:27.058Z,1047.83
2016-12-18T06:46:27.047Z,1047.78
2016-12-18T06:47:27.035Z,1047.79
2016-12-18T06:48:27.024Z,1047.72
2016-12-18T06:49:27.012Z,1047.76
2016-12-18T06:50:27.001Z,1047.76
2016-12-18T06:51:26.989Z,1047.71
2016-12-18T06:52:26.977Z,1047.76
2016-12-18T06:53:26.966Z,1047.77
2016-12-18T06:54:26.954Z,1047.75
2016-12-18T06:55:26.943Z,1047.72
2016-12-18T06:56:26.931Z,1047.64
2016-12-18T06:57:26.919Z,1047.67
2016-12-18T06:58:26.908Z,1047.66
2016-12-18T06:59:26.896Z,1047.67
2016-12-18T07:00:26.884Z,1047.68
2016-12-18T07:01:26.873Z,1047.65
2016-12-18T07:02:26.861Z,1047.56
2016-12-18T07:03:26.849Z,1047.58
2016-12-18T07:04:26.838Z,1047.6
2016-12-18T07:05:26.828Z,1047.56
2016-12-18T07:06:26.817Z,1047.52
2016-12-18T07:07:26.803Z,1047.53
2016-12-18T07:08:26.792Z,1047.49
2016-12-18T07:09:26.781Z,1047.52
2016-12-18T07:10:26.769Z,1047.47
2016-12-18T07:11:26.758Z,1047.41
2016-12-18T07:12:26.746Z,1047.37
2016-12-18T07:13:26.735Z,1047.41
2016-12-18T07:14:26.723Z,1047.43
2016-12-18T07:15:26.711Z,1047.46
2016-12-18T07:16:26.700Z,1047.47
2016-12-18T07:17:26.689Z,1047.5
2016-12-18T07:18:26.678Z,1047.55
2016-12-18T07:19:26.669Z,1047.59
2016-12-18T07:20:26.654Z,1047.55
2016-12-18T07:21:26.643Z,1047.56
2016-12-18T07:22:26.631Z,1047.59
2016-12-18T07:23:26.620Z,1047.62
2016-12-18T07:24:26.609Z,1047.57
2016-12-18T07:25:26.596Z,1047.57
2016-12-18T07:26:26.585Z,1047.58
2016-12-18T07:27:26.574Z,1047.61
2016-12-18T07:28:26.563Z,1047.57
2016-12-18T07:29:26.552Z,1047.53
2016-12-18T07:30:26.540Z,1047.49
2016-12-18T07:31:26.528Z,1047.46
2016-12-18T07:32:26.518Z,1047.44
2016-12-18T07:33:26.505Z,1047.4
2016-12-18T07:34:26.494Z,1047.33
2016-12-18T07:35:26.484Z,1047.33
2016-12-18T07:36:26.471Z,1047.37
2016-12-18T07:37:26.460Z,1047.38
2016-12-18T07:38:26.448Z,1047.37
2016-12-18T07:39:26.437Z,1047.34
2016-12-18T07:40:26.425Z,1047.26
2016-12-18T07:41:26.414Z,1047.25
2016-12-18T07:42:26.403Z,1047.21
2016-12-18T07:43:26.392Z,1047.22
2016-12-18T07:44:26.380Z,1047.18
2016-12-18T07:45:26.369Z,1047.19
2016-12-18T07:46:26.357Z,1047.21
2016-12-18T07:47:26.346Z,1047.17
2016-12-18T07:48:26.334Z,1047.15
2016-12-18T07:49:26.323Z,1047.14
2016-12-18T07:50:26.312Z,1047.11
2016-12-18T07:51:26.300Z,1047.07
2016-12-18T07:52:26.289Z,1047.08
2016-12-18T07:53:26.278Z,1047.06
2016-12-18T07:54:26.267Z,1047.14
2016-12-18T07:55:26.255Z,1047.12
2016-12-18T07:56:26.245Z,1047.18
2016-12-18T07:57:26.232Z,1047.25
2016-12-18T07:58:26.221Z,1047.29
2016-12-18T07:59:26.209Z,1047.29
2016-12-18T08:00:26.198Z,1047.33
2016-12-18T08:01:26.188Z,1047.33
2016-12-18T08:02:26.175Z,1047.3
2016-12-18T08:03:26.164Z,1047.3
2016-12-18T08:04:26.153Z,1047.39
2016-12-18T08:05:26.142Z,1047.36
2016-12-18T08:06:26.130Z,1047.42
2016-12-18T08:07:26.119Z,1047.44
2016-12-18T08:08:26.108Z,1047.4
2016-12-18T08:09:26.096Z,1047.42
2016-12-18T08:10:26.085Z,1047.39
2016-12-18T08:11:26.074Z,1047.44
2016-12-18T08:12:26.063Z,1047.4
2016-12-18T08:13:26.052Z,1047.37
2016-12-18T08:14:26.040Z,1047.36
2016-12-18T08:15:26.029Z,1047.37
2016-12-18T08:16:26.019Z,1047.35
2016-12-18T08:17:26.008Z,1047.33
2016-12-18T08:18:25.997Z,1047.32
2016-12-18T08:19:25.986Z,1047.28
2016-12-18T08:20:25.974Z,1047.29
2016-12-18T08:21:25.963Z,1047.29
2016-12-18T08:22:25.952Z,1047.29
2016-12-18T08:23:25.941Z,1047.27
2016-12-18T08:24:25.930Z,1047.27
2016-12-18T08:25:25.919Z,1047.27
2016-12-18T08:26:25.909Z,1047.28
2016-12-18T08:27:25.897Z,1047.27
2016-12-18T08:28:25.886Z,1047.28
2016-12-18T08:29:25.875Z,1047.27
2016-12-18T08:30:25.864Z,1047.29
2016-12-18T08:31:25.852Z,1047.26
2016-12-18T08:32:25.842Z,1047.25
2016-12-18T08:33:25.831Z,1047.23
2016-12-18T08:34:25.821Z,1047.29
2016-12-18T08:35:25.809Z,1047.3
2016-12-18T08:36:25.798Z,1047.29
2016-12-18T08:37:25.787Z,1047.31
2016-12-18T08:38:25.776Z,1047.27
2016-12-18T08:39:25.766Z,1047.23
2016-12-18T08:40:25.755Z,1047.22
2016-12-18T08:41:25.744Z,1047.24
2016-12-18T08:42:25.732Z,1047.24
2016-12-18T08:43:25.722Z,1047.22
2016-12-18T08:44:25.711Z,1047.21
2016-12-18T08:45:25.702Z,1047.15
2016-12-18T08:46:25.691Z,1047.11
2016-12-18T08:47:25.678Z,1047.07
2016-12-18T08:48:25.668Z,1047.04
2016-12-18T08:49:25.656Z,1046.98
2016-12-18T08:50:25.645Z,1046.93
2016-12-18T08:51:25.636Z,1046.85
2016-12-18T08:52:25.624Z,1046.85
2016-12-18T08:53:25.613Z,1046.78
2016-12-18T08:54:25.602Z,1046.76
2016-12-18T08:55:25.592Z,1046.72
2016-12-18T08:56:25.581Z,1046.69
2016-12-18T08:57:25.570Z,1046.7
2016-12-18T08:58:25.559Z,1046.67
2016-12-18T08:59:25.549Z,1046.7
2016-12-18T09:00:25.537Z,1046.63
2016-12-18T09:01:25.527Z,1046.58
2016-12-18T09:02:25.516Z,1046.57
2016-12-18T09:03:25.508Z,1046.57
2016-12-18T09:04:25.494Z,1046.52
2016-12-18T09:05:25.484Z,1046.52
2016-12-18T09:06:25.474Z,1046.49
2016-12-18T09:07:25.463Z,1046.44
2016-12-18T09:08:25.452Z,1046.48
2016-12-18T09:09:25.442Z,1046.46
2016-12-18T09:10:25.431Z,1046.48
2016-12-18T09:11:25.420Z,1046.46
2016-12-18T09:12:25.411Z,1046.46
2016-12-18T09:13:25.399Z,1046.47
2016-12-18T09:14:25.390Z,1046.38
2016-12-18T09:15:25.378Z,1046.39
2016-12-18T09:16:25.367Z,1046.39
2016-12-18T09:17:25.357Z,1046.4
2016-12-18T09:18:25.347Z,1046.32
2016-12-18T09:19:25.336Z,1046.29
2016-12-18T09:20:25.326Z,1046.26
2016-12-18T09:21:25.315Z,1046.33
2016-12-18T09:22:25.304Z,1046.29
2016-12-18T09:23:25.294Z,1046.28
2016-12-18T09:24:25.284Z,1046.27
2016-12-18T09:25:25.273Z,1046.26
2016-12-18T09:26:25.262Z,1046.31
2016-12-18T09:27:25.252Z,1046.32
2016-12-18T09:28:25.242Z,1046.35
2016-12-18T09:29:25.232Z,1046.37
2016-12-18T09:30:25.221Z,1046.33
2016-12-18T09:31:25.211Z,1046.29
2016-12-18T09:32:25.201Z,1046.21
2016-12-18T09:33:25.189Z,1046.15
2016-12-18T09:34:25.179Z,1046.12
2016-12-18T09:35:25.169Z,1046.04
2016-12-18T09:36:25.159Z,1046.04
2016-12-18T09:37:25.148Z,1046.04
2016-12-18T09:38:25.138Z,1046.04
2016-12-18T09:39:25.128Z,1045.97
2016-12-18T09:40:25.118Z,1046.03
2016-12-18T09:41:25.107Z,1046.01
2016-12-18T09:42:25.098Z,1046.03
2016-12-18T09:43:25.087Z,1046.02
2016-12-18T09:44:25.076Z,1046
2016-12-18T09:45:25.066Z,1046.02
2016-12-18T09:46:25.056Z,1046.04
2016-12-18T09:47:25.045Z,1046.05
2016-12-18T09:48:25.035Z,1046.02
2016-12-18T09:49:25.028Z,1045.96
2016-12-18T09:50:25.014Z,1045.97
2016-12-18T09:51:25.005Z,1045.96
2016-12-18T09:52:24.995Z,1045.9
2016-12-18T09:53:24.985Z,1045.87
2016-12-18T09:54:24.975Z,1045.83
2016-12-18T09:55:24.964Z,1045.74
2016-12-18T09:56:24.954Z,1045.69
2016-12-18T09:57:24.943Z,1045.68
2016-12-18T09:58:24.934Z,1045.64
2016-12-18T09:59:24.923Z,1045.61
2016-12-18T10:00:24.915Z,1045.63
2016-12-18T10:01:24.903Z,1045.6
2016-12-18T10:02:24.892Z,1045.57
2016-12-18T10:03:24.882Z,1045.59
2016-12-18T10:04:24.872Z,1045.55
2016-12-18T10:05:24.862Z,1045.57
2016-12-18T10:06:24.851Z,1045.56
2016-12-18T10:07:24.841Z,1045.56
2016-12-18T10:08:24.831Z,1045.56
2016-12-18T10:09:24.822Z,1045.55
2016-12-18T10:10:24.811Z,1045.53
2016-12-18T10:11:24.801Z,1045.53
2016-12-18T10:12:24.792Z,1045.47
2016-12-18T10:13:24.780Z,1045.49
2016-12-18T10:14:24.770Z,1045.49
2016-12-18T10:15:24.760Z,1045.51
2016-12-18T10:16:24.750Z,1045.47
2016-12-18T10:17:24.739Z,1045.48
2016-12-18T10:18:24.730Z,1045.43
2016-12-18T10:19:24.721Z,1045.43
2016-12-18T10:20:24.710Z,1045.42
2016-12-18T10:21:24.699Z,1045.43
2016-12-18T10:22:24.689Z,1045.43
2016-12-18T10:23:24.681Z,1045.42
2016-12-18T10:24:24.669Z,1045.41
2016-12-18T10:25:24.659Z,1045.37
2016-12-18T10:26:24.649Z,1045.39
2016-12-18T10:27:24.640Z,1045.33
2016-12-18T10:28:24.629Z,1045.34
2016-12-18T10:29:24.619Z,1045.34
2016-12-18T10:30:24.609Z,1045.31
2016-12-18T10:31:24.599Z,1045.28
2016-12-18T10:32:24.588Z,1045.3
2016-12-18T10:33:24.579Z,1045.29
2016-12-18T10:34:24.569Z,1045.27
2016-12-18T10:35:24.558Z,1045.24
2016-12-18T10:36:24.548Z,1045.2
2016-12-18T10:37:24.539Z,1045.13
2016-12-18T10:38:24.529Z,1045.1
2016-12-18T10:39:24.519Z,1045.07
2016-12-18T10:40:24.509Z,1045.06
2016-12-18T10:41:24.499Z,1045.05
2016-12-18T10:42:24.490Z,1045.02
2016-12-18T10:43:24.478Z,1045.02
2016-12-18T10:44:24.469Z,1045.01
2016-12-18T10:45:24.460Z,1044.96
2016-12-18T10:46:24.449Z,1044.84
2016-12-18T10:47:24.439Z,1044.75
2016-12-18T10:48:24.433Z,1044.71
2016-12-18T10:49:24.421Z,1044.7
2016-12-18T10:50:24.408Z,1044.68
2016-12-18T10:51:24.399Z,1044.66
2016-12-18T10:52:24.391Z,1044.61
2016-12-18T10:53:24.380Z,1044.59
2016-12-18T10:54:24.369Z,1044.6
2016-12-18T10:55:24.359Z,1044.61
2016-12-18T10:56:24.350Z,1044.62
2016-12-18T10:57:24.340Z,1044.65
2016-12-18T10:58:24.330Z,1044.64
2016-12-18T10:59:24.320Z,1044.65
2016-12-18T11:00:24.310Z,1044.63
2016-12-18T11:01:24.300Z,1044.62
2016-12-18T11:02:24.290Z,1044.64
2016-12-18T11:03:24.281Z,1044.71
2016-12-18T11:04:24.272Z,1044.73
2016-12-18T11:05:24.261Z,1044.7
2016-12-18T11:06:24.260Z,1044.78
2016-12-18T11:07:24.243Z,1044.78
2016-12-18T11:08:24.233Z,1044.79
2016-12-18T11:09:24.222Z,1044.77
2016-12-18T11:10:24.213Z,1044.8
2016-12-18T11:11:24.204Z,1044.78
2016-12-18T11:12:24.193Z,1044.79
2016-12-18T11:13:24.185Z,1044.83
2016-12-18T11:14:24.175Z,1044.81
2016-12-18T11:15:24.165Z,1044.83
2016-12-18T11:16:24.155Z,1044.81
2016-12-18T11:17:24.146Z,1044.76
2016-12-18T11:18:24.136Z,1044.77
2016-12-18T11:19:24.126Z,1044.72
2016-12-18T11:20:24.117Z,1044.71
2016-12-18T11:21:24.107Z,1044.69
2016-12-18T11:22:24.097Z,1044.72
2016-12-18T11:23:24.089Z,1044.72
2016-12-18T11:24:24.077Z,1044.73
2016-12-18T11:25:24.068Z,1044.74
2016-12-18T11:26:24.058Z,1044.75
2016-12-18T11:27:24.049Z,1044.76
2016-12-18T11:28:24.040Z,1044.77
2016-12-18T11:29:24.030Z,1044.72
2016-12-18T11:30:24.020Z,1044.78
2016-12-18T11:31:24.010Z,1044.77
2016-12-18T11:32:24.001Z,1044.76
2016-12-18T11:33:23.991Z,1044.76
2016-12-18T11:34:23.981Z,1044.73
2016-12-18T11:35:23.973Z,1044.7
2016-12-18T11:36:23.962Z,1044.68
2016-12-18T11:37:23.953Z,1044.64
2016-12-18T11:38:23.942Z,1044.59
2016-12-18T11:39:23.933Z,1044.56
2016-12-18T11:40:23.923Z,1044.58
2016-12-18T11:41:23.913Z,1044.55
2016-12-18T11:42:23.904Z,1044.54
2016-12-18T11:43:23.895Z,1044.52
2016-12-18T11:44:23.885Z,1044.48
2016-12-18T11:45:23.875Z,1044.52
2016-12-18T11:46:23.867Z,1044.54
2016-12-18T11:47:23.857Z,1044.52
2016-12-18T11:48:23.846Z,1044.51
2016-12-18T11:49:23.837Z,1044.48
2016-12-18T11:50:23.828Z,1044.44
2016-12-18T11:51:23.819Z,1044.45
2016-12-18T11:52:23.808Z,1044.49
2016-12-18T11:53:23.799Z,1044.52
2016-12-18T11:54:23.789Z,1044.52
2016-12-18T11:55:23.780Z,1044.59
2016-12-18T11:56:23.770Z,1044.61
2016-12-18T11:57:23.761Z,1044.61
2016-12-18T11:58:23.753Z,1044.7
2016-12-18T11:59:23.742Z,1044.69
2016-12-18T12:00:23.732Z,1044.73
2016-12-18T12:01:23.724Z,1044.77
2016-12-18T12:02:23.716Z,1044.72
2016-12-18T12:03:23.703Z,1044.74
2016-12-18T12:04:23.694Z,1044.77
2016-12-18T12:05:23.685Z,1044.76
2016-12-18T12:06:23.675Z,1044.76
2016-12-18T12:07:23.666Z,1044.76
2016-12-18T12:08:23.655Z,1044.73